Time;durP1;ratioP1;P1;durP2;ratioP2;P2;SDS_P1;SDS_P2;PMS_P1;PMS_P2;Temp;Humidity;BMP_temperature;BMP_pressure;BME280_temperature;BME280_humidity;BME280_pressure;Samples;Min_cycle;Max_cycle;Signal;HPM_P1;HPM_P2
2022/10/31 00:01:25;;;;;;;11.30;6.00;;;;;;;11.10;100.00;102176.38;5073138;28;20467;-71
2022/10/31 00:03:52;;;;;;;13.95;6.03;;;;;;;11.11;100.00;102175.34;5071607;28;20028;-70
2022/10/31 00:06:18;;;;;;;14.27;6.63;;;;;;;11.15;100.00;102178.63;5072540;28;20115;-73
2022/10/31 00:08:45;;;;;;;17.37;7.87;;;;;;;11.21;100.00;102172.47;5088851;28;20148;-71
2022/10/31 00:11:10;;;;;;;;;;;;;;;11.22;100.00;102171.44;5069498;28;20039;-71
2022/10/31 00:13:36;;;;;;;16.73;6.80;;;;;;;11.23;100.00;102175.88;5087587;28;19920;-71
2022/10/31 00:16:01;;;;;;;16.45;7.50;;;;;;;11.24;100.00;102174.84;5072037;28;20020;-71
2022/10/31 00:18:26;;;;;;;12.02;7.05;;;;;;;11.21;100.00;102184.28;5089699;28;20032;-70
2022/10/31 00:21:02;;;;;;;12.30;7.27;;;;;;;11.15;100.00;102187.69;5091582;28;20372;-70
2022/10/31 00:23:27;;;;;;;12.30;7.45;;;;;;;11.08;100.00;102188.53;5071477;28;20532;-71
2022/10/31 00:25:52;;;;;;;10.10;7.27;;;;;;;11.06;100.00;102187.84;5079005;28;20024;-71
2022/10/31 00:28:18;;;;;;;10.13;6.77;;;;;;;11.03;100.00;102185.44;5091130;28;20108;-70
2022/10/31 00:30:43;;;;;;;11.43;6.43;;;;;;;11.01;100.00;102193.84;5088516;28;20027;-70
2022/10/31 00:33:08;;;;;;;15.37;7.57;;;;;;;10.99;100.00;102189.56;5086437;28;20032;-69
2022/10/31 00:35:33;;;;;;;12.23;8.30;;;;;;;11.00;100.00;102194.84;5089776;28;20383;-71
2022/10/31 00:37:59;;;;;;;9.93;6.57;;;;;;;10.90;100.00;102196.88;5089005;28;20186;-71
2022/10/31 00:40:24;;;;;;;9.70;6.63;;;;;;;10.86;100.00;102194.63;5088213;28;20054;-72
2022/10/31 00:42:50;;;;;;;13.77;7.63;;;;;;;10.78;100.00;102202.84;5087069;28;20554;-70
2022/10/31 00:45:15;;;;;;;12.93;7.40;;;;;;;10.73;100.00;102200.59;5089389;28;20076;-69
2022/10/31 00:47:40;;;;;;;10.63;7.10;;;;;;;10.70;100.00;102189.97;5088644;28;20364;-70
2022/10/31 00:50:06;;;;;;;11.20;7.03;;;;;;;10.65;100.00;102181.38;5089717;28;20034;-72
2022/10/31 00:52:31;;;;;;;14.13;7.53;;;;;;;10.64;100.00;102178.81;5088531;28;20063;-70
2022/10/31 00:54:57;;;;;;;15.57;7.35;;;;;;;10.58;100.00;102177.56;5086010;28;20028;-72
2022/10/31 00:57:22;;;;;;;13.93;7.93;;;;;;;10.57;100.00;102164.06;5084223;28;20154;-71
2022/10/31 00:59:47;;;;;;;16.00;7.00;;;;;;;10.52;100.00;102158.22;5089589;28;20048;-70
2022/10/31 01:02:13;;;;;;;16.02;7.47;;;;;;;10.40;100.00;102148.59;5086535;28;21652;-70
2022/10/31 01:04:38;;;;;;;16.63;8.03;;;;;;;10.34;100.00;102158.28;5069051;28;20028;-70
2022/10/31 01:07:03;;;;;;;11.77;6.77;;;;;;;10.25;100.00;102159.28;5088865;28;20036;-71
2022/10/31 01:09:29;;;;;;;13.50;7.82;;;;;;;10.22;100.00;102172.44;5090112;28;20024;-70
2022/10/31 01:11:57;;;;;;;10.93;6.83;;;;;;;10.17;100.00;102169.31;5068533;28;20382;-70
2022/10/31 01:14:22;;;;;;;12.48;6.88;;;;;;;10.07;100.00;102165.84;5087991;28;20031;-71
2022/10/31 01:16:47;;;;;;;12.70;8.37;;;;;;;10.03;100.00;102168.00;5087393;28;20451;-70
2022/10/31 01:19:13;;;;;;;15.77;7.60;;;;;;;9.98;100.00;102172.25;5089871;28;20085;-72
2022/10/31 01:21:38;;;;;;;12.70;6.20;;;;;;;9.93;100.00;102166.41;5087698;28;20114;-71
2022/10/31 01:24:04;;;;;;;14.57;7.32;;;;;;;9.86;100.00;102165.31;5087862;28;20083;-71
2022/10/31 01:26:31;;;;;;;15.20;7.90;;;;;;;9.83;100.00;102160.19;5087839;28;20059;-71
2022/10/31 01:29:00;;;;;;;16.05;7.70;;;;;;;9.83;100.00;102158.28;5086320;28;20119;-71
2022/10/31 01:31:28;;;;;;;14.38;8.27;;;;;;;9.78;100.00;102159.81;5085304;28;20410;-70
2022/10/31 01:33:54;;;;;;;19.52;7.93;;;;;;;9.71;100.00;102162.31;5086668;28;20032;-69
2022/10/31 01:36:22;;;;;;;19.87;8.30;;;;;;;9.66;100.00;102158.34;5088086;28;20081;-69
2022/10/31 01:38:49;;;;;;;16.02;7.28;;;;;;;9.63;100.00;102153.19;5081045;28;20044;-70
2022/10/31 01:41:18;;;;;;;12.23;7.65;;;;;;;9.62;100.00;102149.56;5075448;28;20043;-70
2022/10/31 01:43:52;;;;;;;17.58;7.30;;;;;;;9.62;100.00;102151.47;5068608;28;20031;-69
2022/10/31 01:46:25;;;;;;;14.95;7.75;;;;;;;9.57;100.00;102143.75;5086810;28;20035;-70
2022/10/31 01:48:53;;;;;;;12.80;7.32;;;;;;;9.47;100.00;102143.00;5089070;28;20484;-70
2022/10/31 01:51:23;;;;;;;15.73;8.10;;;;;;;9.46;100.00;102151.34;5088424;28;20373;-70
2022/10/31 01:53:52;;;;;;;13.07;7.80;;;;;;;9.41;100.00;102140.88;5087431;28;20039;-71
2022/10/31 01:56:18;;;;;;;18.98;7.95;;;;;;;9.42;100.00;102147.19;5079890;28;20028;-70
2022/10/31 01:58:45;;;;;;;12.10;7.33;;;;;;;9.39;100.00;102151.09;5085524;28;20372;-70
2022/10/31 02:01:13;;;;;;;21.55;7.85;;;;;;;9.35;100.00;102137.91;5088278;28;20415;-71
2022/10/31 02:03:39;;;;;;;13.77;7.50;;;;;;;9.32;100.00;102143.69;5089299;28;20428;-72
2022/10/31 02:06:07;;;;;;;15.57;7.60;;;;;;;9.29;100.00;102144.03;5089560;28;20103;-71
2022/10/31 02:08:34;;;;;;;14.60;7.13;;;;;;;9.28;100.00;102145.03;5089422;28;20504;-70
2022/10/31 02:11:01;;;;;;;13.80;7.15;;;;;;;9.22;100.00;102137.44;5088618;28;20344;-71
2022/10/31 02:13:28;;;;;;;12.90;7.88;;;;;;;9.25;100.00;102146.22;5085622;28;20043;-71
2022/10/31 02:15:56;;;;;;;12.48;9.00;;;;;;;9.24;100.00;102146.38;5083869;28;20036;-71
2022/10/31 02:18:24;;;;;;;13.50;7.90;;;;;;;9.18;100.00;102145.09;5086812;28;20047;-72
2022/10/31 02:21:10;;;;;;;14.35;7.82;;;;;;;9.17;100.00;102145.25;5089114;28;20031;-71
2022/10/31 02:23:54;;;;;;;13.68;8.77;;;;;;;9.11;100.00;102144.03;5053508;28;20040;-71
2022/10/31 02:26:37;;;;;;;13.38;7.53;;;;;;;9.10;100.00;102144.16;5087897;28;20646;-71
2022/10/31 02:29:25;;;;;;;10.43;7.53;;;;;;;9.15;100.00;102147.28;5088526;28;20089;-72
2022/10/31 02:32:05;;;;;;;15.45;8.57;;;;;;;9.15;100.00;102147.28;5087365;28;20086;-70
2022/10/31 02:34:55;;;;;;;10.00;7.38;;;;;;;9.08;100.00;102140.75;5079462;28;20029;-71
2022/10/31 02:37:35;;;;;;;11.75;8.02;;;;;;;9.13;100.00;102139.25;5087476;28;20475;-74
2022/10/31 02:40:21;;;;;;;13.25;8.50;;;;;;;9.14;100.00;102140.13;5067438;28;20020;-72
2022/10/31 02:42:58;;;;;;;14.77;7.95;;;;;;;9.12;100.00;102143.00;5083313;28;20058;-71
2022/10/31 02:45:38;;;;;;;15.38;8.27;;;;;;;9.11;100.00;102140.41;5086762;28;20111;-70
2022/10/31 02:48:11;;;;;;;13.95;8.45;;;;;;;9.12;100.00;102140.28;5089910;28;20024;-71
2022/10/31 02:50:41;;;;;;;16.85;8.40;;;;;;;9.16;100.00;102140.81;5092075;28;20035;-71
2022/10/31 02:53:06;;;;;;;13.95;9.20;;;;;;;9.22;100.00;102137.44;5088395;28;20039;-71
2022/10/31 02:55:34;;;;;;;19.23;10.13;;;;;;;9.27;100.00;102144.16;5088522;28;20372;-70
2022/10/31 02:58:05;;;;;;;17.45;9.75;;;;;;;9.35;100.00;102146.13;5072395;28;20016;-71
2022/10/31 03:00:41;;;;;;;18.48;10.20;;;;;;;9.35;100.00;102149.69;5087780;28;20118;-73
2022/10/31 03:03:12;;;;;;;25.80;12.10;;;;;;;9.37;100.00;102144.94;5091253;28;20073;-71
2022/10/31 03:06:08;;;;;;;18.35;10.25;;;;;;;9.40;100.00;102150.09;5092044;28;20474;-71
2022/10/31 03:08:36;;;;;;;18.60;11.48;;;;;;;9.48;100.00;102149.28;5077157;28;20101;-71
2022/10/31 03:11:06;;;;;;;22.90;12.13;;;;;;;9.54;100.00;102145.94;5090405;28;20032;-72
2022/10/31 03:13:48;;;;;;;22.38;12.48;;;;;;;9.68;100.00;102142.63;5088964;28;20028;-70
2022/10/31 03:16:19;;;;;;;23.75;12.85;;;;;;;9.66;100.00;102136.47;5089964;28;20055;-71
2022/10/31 03:18:55;;;;;;;22.70;12.30;;;;;;;9.67;100.00;102139.03;5086256;28;20040;-72
2022/10/31 03:21:22;;;;;;;25.15;12.35;;;;;;;9.63;100.00;102140.38;5087218;28;20160;-71
2022/10/31 03:23:50;;;;;;;;;;;;;;;9.53;100.00;102139.63;5091067;28;20168;-71
2022/10/31 03:26:16;;;;;;;23.15;11.18;;;;;;;9.52;100.00;102139.75;5088815;28;20287;-71
2022/10/31 03:28:53;;;;;;;23.27;12.82;;;;;;;9.56;100.00;102141.16;5082936;28;20028;-72
2022/10/31 03:31:23;;;;;;;20.15;12.77;;;;;;;9.51;100.00;102144.38;5088026;28;20121;-71
2022/10/31 03:33:50;;;;;;;24.13;14.18;;;;;;;9.61;100.00;102150.59;5083270;28;20124;-70
2022/10/31 03:36:17;;;;;;;23.52;14.20;;;;;;;9.69;100.00;102144.34;5071857;28;20028;-71
2022/10/31 03:38:44;;;;;;;;;;;;;;;9.81;100.00;102140.31;5060969;28;20032;-70
2022/10/31 03:41:16;;;;;;;21.33;13.73;;;;;;;9.91;100.00;102141.06;5090680;28;19912;-70
2022/10/31 03:43:52;;;;;;;25.30;13.27;;;;;;;9.95;100.00;102143.34;5072346;28;20024;-70
2022/10/31 03:46:17;;;;;;;25.20;13.60;;;;;;;9.87;100.00;102145.16;5087610;28;20013;-70
2022/10/31 03:48:43;;;;;;;19.27;14.37;;;;;;;9.92;100.00;102143.66;5071850;28;20114;-71
2022/10/31 03:51:18;;;;;;;24.93;13.63;;;;;;;9.89;100.00;102137.66;5088647;28;20391;-71
2022/10/31 03:54:02;;;;;;;24.85;13.45;;;;;;;9.80;100.00;102146.81;5088101;28;20153;-72
2022/10/31 03:56:50;;;;;;;19.55;12.52;;;;;;;9.66;100.00;102152.88;5071091;28;20035;-71
2022/10/31 03:59:40;;;;;;;30.65;12.57;;;;;;;9.62;100.00;102143.28;5089790;28;20502;-71
2022/10/31 04:02:10;;;;;;;19.58;11.88;;;;;;;9.53;100.00;102147.81;5087762;28;20032;-71
2022/10/31 04:04:37;;;;;;;21.48;12.90;;;;;;;9.46;100.00;102145.88;5089905;28;20032;-71
2022/10/31 04:07:03;;;;;;;25.90;13.40;;;;;;;9.37;100.00;102150.41;5091205;28;20071;-73
2022/10/31 04:09:32;;;;;;;21.50;12.63;;;;;;;9.40;100.00;102136.41;5091976;28;20069;-71
2022/10/31 04:12:01;;;;;;;22.75;12.57;;;;;;;9.35;100.00;102141.50;5088703;28;20024;-73
2022/10/31 04:14:31;;;;;;;20.45;13.30;;;;;;;9.29;100.00;102141.28;5090492;28;20040;-71
2022/10/31 04:16:56;;;;;;;19.38;12.82;;;;;;;9.26;100.00;102138.84;5089478;28;20153;-72
2022/10/31 04:19:22;;;;;;;25.17;12.63;;;;;;;9.27;100.00;102138.69;5089688;28;20115;-71
2022/10/31 04:21:47;;;;;;;22.25;12.77;;;;;;;9.19;100.00;102138.63;5090356;28;20031;-71
2022/10/31 04:24:12;;;;;;;24.73;12.87;;;;;;;9.14;100.00;102132.75;5071906;28;20028;-71
2022/10/31 04:26:38;;;;;;;26.38;13.52;;;;;;;9.13;100.00;102138.41;5072548;28;20475;-71
2022/10/31 04:29:03;;;;;;;23.50;11.63;;;;;;;9.11;100.00;102129.47;5089025;28;20032;-72
2022/10/31 04:31:28;;;;;;;23.23;13.67;;;;;;;9.09;100.00;102140.59;5089871;28;20471;-71
2022/10/31 04:33:54;;;;;;;22.13;11.93;;;;;;;9.01;100.00;102142.34;5088656;28;20036;-72
2022/10/31 04:36:20;;;;;;;17.55;13.02;;;;;;;8.99;100.00;102141.66;5087738;28;20039;-71
2022/10/31 04:38:45;;;;;;;32.97;11.53;;;;;;;8.93;100.00;102143.16;5089960;28;20039;-71
2022/10/31 04:41:10;;;;;;;18.77;10.73;;;;;;;8.92;100.00;102146.06;5094321;28;20023;-71
2022/10/31 04:43:36;;;;;;;21.27;11.75;;;;;;;8.90;100.00;102138.00;5076381;28;20032;-71
2022/10/31 04:46:01;;;;;;;18.73;11.88;;;;;;;8.86;100.00;102135.75;5089123;28;20052;-72
2022/10/31 04:48:26;;;;;;;15.17;11.87;;;;;;;8.86;100.00;102142.03;5089803;28;20024;-71
2022/10/31 04:50:52;;;;;;;24.98;12.30;;;;;;;8.78;100.00;102138.38;5089710;28;20028;-72
2022/10/31 04:53:17;;;;;;;18.35;11.50;;;;;;;8.77;100.00;102132.06;5089031;28;20020;-71
2022/10/31 04:55:42;;;;;;;16.50;11.45;;;;;;;8.73;100.00;102132.50;5085579;28;20032;-71
2022/10/31 04:58:08;;;;;;;19.42;11.63;;;;;;;8.73;100.00;102127.91;5084858;28;20024;-71
2022/10/31 05:00:33;;;;;;;22.40;12.70;;;;;;;8.79;100.00;102123.69;5075234;28;20053;-72
2022/10/31 05:02:59;;;;;;;19.38;12.70;;;;;;;8.75;100.00;102127.78;5087899;28;20031;-72
2022/10/31 05:05:27;;;;;;;24.13;12.77;;;;;;;8.72;100.00;102119.88;5088018;28;20078;-72
2022/10/31 05:07:53;;;;;;;18.58;12.18;;;;;;;8.63;100.00;102121.66;5070737;28;20046;-70
2022/10/31 05:10:24;;;;;;;23.00;12.97;;;;;;;8.63;100.00;102120.78;5089184;28;20039;-70
2022/10/31 05:12:52;;;;;;;27.10;12.20;;;;;;;8.64;100.00;102114.34;5088305;28;20032;-70
2022/10/31 05:15:18;;;;;;;25.98;12.80;;;;;;;8.62;100.00;102110.88;5087162;28;20032;-70
2022/10/31 05:17:44;;;;;;;20.02;12.18;;;;;;;8.58;100.00;102114.91;5088530;28;20028;-70
2022/10/31 05:20:11;;;;;;;18.30;11.75;;;;;;;8.56;100.00;102114.22;5087472;28;20082;-71
2022/10/31 05:22:36;;;;;;;29.23;12.88;;;;;;;8.53;100.00;102109.06;5090775;28;20347;-71
2022/10/31 05:25:02;;;;;;;19.20;12.50;;;;;;;8.53;100.00;102106.31;5070820;28;20040;-71
2022/10/31 05:27:28;;;;;;;21.27;12.05;;;;;;;8.49;100.00;102102.22;5088570;28;20112;-71
2022/10/31 05:29:53;;;;;;;19.30;12.53;;;;;;;8.46;100.00;102105.22;5089045;28;20032;-72
2022/10/31 05:32:18;;;;;;;23.88;12.32;;;;;;;8.48;100.00;102106.81;5066146;28;20068;-70
2022/10/31 05:34:44;;;;;;;25.10;13.47;;;;;;;8.47;100.00;102094.16;5087610;28;20429;-71
2022/10/31 05:37:09;;;;;;;23.73;13.27;;;;;;;8.49;100.00;102097.59;5089553;28;20031;-70
2022/10/31 05:39:34;;;;;;;18.95;11.90;;;;;;;8.45;100.00;102098.94;5071992;28;20028;-71
2022/10/31 05:42:00;;;;;;;27.23;13.73;;;;;;;8.41;100.00;102096.63;5066471;28;20039;-70
2022/10/31 05:44:25;;;;;;;28.25;12.38;;;;;;;8.38;100.00;102096.97;5088297;28;20127;-71
2022/10/31 05:46:50;;;;;;;21.10;13.13;;;;;;;8.37;100.00;102090.63;5088612;28;20421;-71
2022/10/31 05:49:17;;;;;;;21.65;12.10;;;;;;;8.32;100.00;102092.13;5087309;28;20589;-71
2022/10/31 05:51:42;;;;;;;23.40;12.52;;;;;;;8.29;100.00;102090.53;5090199;28;20028;-71
2022/10/31 05:54:07;;;;;;;18.10;12.82;;;;;;;8.28;100.00;102093.41;5090305;28;20050;-72
2022/10/31 05:56:33;;;;;;;20.55;12.52;;;;;;;8.22;100.00;102094.03;5087735;28;20436;-72
2022/10/31 05:58:58;;;;;;;19.43;12.60;;;;;;;8.23;100.00;102093.84;5084117;28;20082;-71
2022/10/31 06:01:23;;;;;;;24.17;13.88;;;;;;;8.23;100.00;102090.28;5069249;28;20037;-71
2022/10/31 06:03:49;;;;;;;20.40;12.27;;;;;;;8.23;100.00;102099.31;5087790;28;20028;-71
2022/10/31 06:06:14;;;;;;;22.95;13.88;;;;;;;8.22;100.00;102094.03;5087195;28;20112;-71
2022/10/31 06:08:40;;;;;;;20.02;13.43;;;;;;;8.21;100.00;102095.03;5070528;28;20126;-71
2022/10/31 06:11:05;;;;;;;23.70;13.93;;;;;;;8.22;100.00;102094.88;5068260;28;20028;-73
2022/10/31 06:13:30;;;;;;;20.90;12.47;;;;;;;8.18;100.00;102092.56;5060742;28;20024;-72
2022/10/31 06:15:55;;;;;;;19.23;13.30;;;;;;;8.17;100.00;102099.06;5083391;28;20475;-72
2022/10/31 06:18:21;;;;;;;30.42;12.50;;;;;;;8.18;100.00;102100.75;5086039;28;20103;-71
2022/10/31 06:20:46;;;;;;;21.90;13.20;;;;;;;8.18;100.00;102103.50;5088604;28;20032;-71
2022/10/31 06:23:12;;;;;;;21.00;13.30;;;;;;;8.15;100.00;102098.31;5084799;28;20036;-71
2022/10/31 06:25:37;;;;;;;22.57;13.97;;;;;;;8.10;100.00;102106.97;5091422;28;20028;-72
2022/10/31 06:28:02;;;;;;;23.67;12.85;;;;;;;8.11;100.00;102102.38;5088828;28;20387;-72
2022/10/31 06:30:28;;;;;;;24.67;14.13;;;;;;;8.16;100.00;102103.63;5087522;28;20506;-71
2022/10/31 06:32:53;;;;;;;19.57;12.60;;;;;;;8.12;100.00;102104.94;5092549;28;20028;-71
2022/10/31 06:35:19;;;;;;;29.02;14.60;;;;;;;8.13;100.00;102108.53;5092243;28;20035;-72
2022/10/31 06:37:51;;;;;;;26.05;14.40;;;;;;;8.11;100.00;102108.69;5093042;28;20093;-72
2022/10/31 06:40:16;;;;;;;26.60;13.93;;;;;;;8.13;100.00;102109.41;5091285;28;20081;-71
2022/10/31 06:42:41;;;;;;;22.50;13.45;;;;;;;8.11;100.00;102099.66;5090807;28;20123;-72
2022/10/31 06:45:07;;;;;;;25.67;15.60;;;;;;;8.13;100.00;102105.81;5089211;28;20024;-72
2022/10/31 06:47:32;;;;;;;20.33;12.48;;;;;;;8.16;100.00;102098.19;5087458;28;20032;-71
2022/10/31 06:49:58;;;;;;;22.30;13.47;;;;;;;8.17;100.00;102099.91;5087955;28;20024;-69
2022/10/31 06:52:23;;;;;;;23.23;13.33;;;;;;;8.21;100.00;102106.81;5054183;28;20457;-72
2022/10/31 06:54:48;;;;;;;25.60;14.50;;;;;;;8.29;100.00;102103.31;5068716;28;20036;-71
2022/10/31 06:57:13;;;;;;;29.33;14.60;;;;;;;8.30;100.00;102105.03;5071325;28;20123;-72
2022/10/31 06:59:39;;;;;;;35.03;14.30;;;;;;;8.34;100.00;102117.38;5089820;28;20044;-71
2022/10/31 07:02:04;;;;;;;29.77;13.95;;;;;;;8.45;100.00;102115.31;5083203;28;20131;-72
2022/10/31 07:04:30;;;;;;;32.15;14.20;;;;;;;8.47;100.00;102113.28;5088035;28;20055;-71
2022/10/31 07:06:55;;;;;;;26.83;14.13;;;;;;;8.48;100.00;102123.19;5088705;28;20039;-71
2022/10/31 07:09:21;;;;;;;34.20;14.90;;;;;;;8.50;100.00;102125.75;5087738;28;20174;-70
2022/10/31 07:11:46;;;;;;;35.00;14.82;;;;;;;8.54;100.00;102124.47;5084111;28;20110;-71
2022/10/31 07:14:11;;;;;;;45.88;16.58;;;;;;;8.54;100.00;102125.28;5086852;28;20028;-71
2022/10/31 07:16:37;;;;;;;97.50;17.52;;;;;;;8.60;100.00;102129.31;5088908;28;20023;-73
2022/10/31 07:19:02;;;;;;;63.80;20.07;;;;;;;8.64;100.00;102130.72;5088199;28;20081;-72
2022/10/31 07:21:27;;;;;;;82.40;20.53;;;;;;;8.72;100.00;102117.13;5070201;28;20058;-72
2022/10/31 07:23:53;;;;;;;45.92;18.60;;;;;;;8.78;100.00;102125.59;5090197;28;20513;-72
2022/10/31 07:26:18;;;;;;;58.53;18.15;;;;;;;8.84;100.00;102121.34;5091266;28;20111;-71
2022/10/31 07:28:45;;;;;;;41.22;17.55;;;;;;;8.89;100.00;102127.22;5087820;28;20085;-72
2022/10/31 07:31:10;;;;;;;;;;;;;;;8.95;100.00;102129.31;5087692;28;20020;-71
2022/10/31 07:33:35;;;;;;;36.78;16.45;;;;;;;8.95;100.00;102123.84;5087479;28;19977;-71
2022/10/31 07:36:00;;;;;;;31.92;16.48;;;;;;;9.03;100.00;102130.25;5085442;28;20497;-72
2022/10/31 07:38:26;;;;;;;32.97;16.35;;;;;;;9.04;100.00;102122.94;5071922;28;20035;-71
2022/10/31 07:40:52;;;;;;;25.20;15.00;;;;;;;9.10;100.00;102123.19;5089220;28;20360;-72
2022/10/31 07:43:18;;;;;;;31.52;14.50;;;;;;;9.14;100.00;102126.44;5089570;28;20040;-72
2022/10/31 07:45:44;;;;;;;37.10;15.27;;;;;;;9.20;100.00;102117.63;5090390;28;20123;-71
2022/10/31 07:48:09;;;;;;;25.25;13.50;;;;;;;9.26;100.00;102127.91;5089973;28;20193;-70
2022/10/31 07:50:34;;;;;;;23.13;13.27;;;;;;;9.33;100.00;102139.94;5085040;28;20459;-70
2022/10/31 07:53:07;;;;;;;23.87;14.00;;;;;;;9.37;100.00;102144.06;5071075;28;20056;-72
2022/10/31 07:55:33;;;;;;;26.42;14.40;;;;;;;9.44;100.00;102137.81;5088241;28;20028;-72
2022/10/31 07:58:04;;;;;;;39.13;16.17;;;;;;;9.59;100.00;102129.91;5083577;28;20024;-73
2022/10/31 08:00:30;;;;;;;30.13;16.02;;;;;;;9.75;100.00;102119.94;5069361;28;20557;-71
2022/10/31 08:03:05;;;;;;;39.03;17.23;;;;;;;9.93;100.00;102122.63;5084358;28;20036;-72
2022/10/31 08:05:32;;;;;;;41.33;17.73;;;;;;;10.05;100.00;102129.56;5084499;28;20036;-71
2022/10/31 08:07:57;;;;;;;48.55;19.02;;;;;;;10.16;100.00;102129.28;5086036;28;20127;-71
2022/10/31 08:10:24;;;;;;;32.80;17.60;;;;;;;10.21;100.00;102129.66;5079149;28;20402;-70
2022/10/31 08:13:15;;;;;;;33.40;19.08;;;;;;;10.31;100.00;102130.38;5082450;28;20390;-70
2022/10/31 08:15:41;;;;;;;34.67;18.60;;;;;;;10.33;100.00;102133.81;5079987;28;20403;-70
2022/10/31 08:18:14;;;;;;;30.17;18.13;;;;;;;10.36;100.00;102130.75;5084301;28;20088;-70
2022/10/31 08:20:40;;;;;;;33.67;18.58;;;;;;;10.42;100.00;102130.94;5085088;28;20479;-69
2022/10/31 08:23:06;;;;;;;30.58;18.42;;;;;;;10.51;100.00;102129.09;5068176;28;20024;-69
2022/10/31 08:25:34;;;;;;;34.95;18.75;;;;;;;10.63;100.00;102123.13;5056861;28;20503;-71
2022/10/31 08:27:59;;;;;;;33.60;19.13;;;;;;;10.67;100.00;102120.94;5083000;28;20036;-71
2022/10/31 08:30:27;;;;;;;29.30;17.63;;;;;;;10.72;100.00;102116.66;5088996;28;20032;-69
2022/10/31 08:33:16;;;;;;;28.27;17.60;;;;;;;10.74;100.00;102113.75;5086107;28;20031;-70
2022/10/31 08:35:42;;;;;;;33.17;17.85;;;;;;;10.80;100.00;102104.88;5088649;28;20391;-70
2022/10/31 08:38:12;;;;;;;35.17;18.80;;;;;;;10.85;100.00;102102.47;5086021;28;20023;-71
2022/10/31 08:40:38;;;;;;;30.70;18.65;;;;;;;10.86;100.00;102106.94;5085531;28;20027;-70
2022/10/31 08:43:06;;;;;;;35.40;19.30;;;;;;;10.97;100.00;102107.47;5086987;28;20032;-71
2022/10/31 08:45:33;;;;;;;27.35;17.65;;;;;;;11.02;100.00;102102.34;5083126;28;20020;-70
2022/10/31 08:48:04;;;;;;;29.17;17.40;;;;;;;11.01;100.00;102100.63;5083660;28;20127;-70
2022/10/31 08:50:32;;;;;;;36.53;17.77;;;;;;;11.06;100.00;102102.84;5085956;28;20088;-70
2022/10/31 08:53:06;;;;;;;33.38;18.60;;;;;;;11.08;100.00;102098.03;5085666;28;20115;-71
2022/10/31 08:55:36;;;;;;;32.83;17.27;;;;;;;11.13;100.00;102107.50;5067233;28;20047;-70
2022/10/31 08:58:02;;;;;;;37.15;18.88;;;;;;;11.15;100.00;102096.38;5084344;28;20032;-69
2022/10/31 09:00:28;;;;;;;;;;;;;;;11.18;100.00;102091.38;5082567;28;20043;-70
2022/10/31 09:03:01;;;;;;;31.98;18.23;;;;;;;11.30;100.00;102092.75;5087564;28;19916;-71
2022/10/31 09:05:27;;;;;;;28.88;18.73;;;;;;;11.40;100.00;102084.34;5066485;28;20036;-70
2022/10/31 09:07:57;;;;;;;29.67;18.87;;;;;;;11.46;100.00;102069.94;5085586;28;20037;-72
2022/10/31 09:10:24;;;;;;;27.45;17.08;;;;;;;11.53;100.00;102070.97;5086353;28;20031;-71
2022/10/31 09:13:09;;;;;;;26.90;17.38;;;;;;;11.60;100.00;102067.38;5086982;28;20028;-70
2022/10/31 09:15:38;;;;;;;29.23;17.73;;;;;;;11.69;100.00;102070.97;5052401;28;20555;-74
2022/10/31 09:18:05;;;;;;;31.98;18.80;;;;;;;11.76;100.00;102063.75;5084175;28;20454;-72
2022/10/31 09:20:32;;;;;;;;;;;;;;;11.87;100.00;102057.88;5086182;28;20536;-71
2022/10/31 09:23:06;;;;;;;30.50;19.70;;;;;;;11.99;100.00;102051.84;5088226;28;22155;-72
2022/10/31 09:25:33;;;;;;;39.55;19.92;;;;;;;12.13;100.00;102048.38;5084073;28;20379;-71
2022/10/31 09:28:00;;;;;;;46.03;21.33;;;;;;;12.30;100.00;102046.38;5082873;28;21686;-72
2022/10/31 09:30:26;;;;;;;;;;;;;;;12.42;100.00;102042.19;5085776;28;20035;-70
2022/10/31 09:32:59;;;;;;;31.52;20.13;;;;;;;12.51;100.00;102041.13;5088175;28;19916;-70
2022/10/31 09:35:25;;;;;;;36.75;21.48;;;;;;;12.66;100.00;102037.41;5082281;28;20028;-71
2022/10/31 09:37:58;;;;;;;35.03;22.50;;;;;;;12.77;100.00;102039.75;5084713;28;20061;-70
2022/10/31 09:40:37;;;;;;;35.35;21.30;;;;;;;12.79;100.00;102026.66;5087684;28;20343;-71
2022/10/31 09:43:23;;;;;;;34.25;21.65;;;;;;;12.86;100.00;102029.56;5083843;28;20032;-71
2022/10/31 09:46:02;;;;;;;35.45;21.25;;;;;;;12.95;100.00;102022.94;5083489;28;20024;-70
2022/10/31 09:48:37;;;;;;;33.50;19.45;;;;;;;12.99;100.00;102019.69;5066672;28;20078;-71
2022/10/31 09:51:08;;;;;;;34.30;20.67;;;;;;;13.12;100.00;102016.31;5084899;28;20043;-70
2022/10/31 09:53:40;;;;;;;40.63;21.42;;;;;;;13.25;100.00;102022.91;5086810;28;20455;-70
2022/10/31 09:56:09;;;;;;;42.05;20.23;;;;;;;13.36;100.00;102013.31;5084526;28;20035;-70
2022/10/31 09:58:41;;;;;;;40.10;20.95;;;;;;;13.38;100.00;102012.09;5060615;28;20372;-70
2022/10/31 10:01:19;;;;;;;42.72;22.95;;;;;;;13.48;100.00;102011.81;5079236;28;20020;-70
2022/10/31 10:03:50;;;;;;;29.30;19.75;;;;;;;13.55;100.00;102012.78;5079552;28;20055;-72
2022/10/31 10:06:28;;;;;;;35.35;18.98;;;;;;;13.64;100.00;102007.00;5085396;28;20479;-70
2022/10/31 10:08:54;;;;;;;34.63;19.98;;;;;;;13.73;100.00;101997.63;5091843;28;20119;-71
2022/10/31 10:11:27;;;;;;;36.70;21.05;;;;;;;13.84;100.00;102010.03;5085687;28;20028;-70
2022/10/31 10:14:18;;;;;;;35.50;20.75;;;;;;;13.92;100.00;102002.53;5054288;28;20036;-71
2022/10/31 10:17:13;;;;;;;35.95;18.85;;;;;;;13.92;100.00;101996.19;5063112;28;20052;-71
2022/10/31 10:19:57;;;;;;;35.35;19.98;;;;;;;13.86;100.00;101996.94;5081818;28;20074;-71
2022/10/31 10:22:50;;;;;;;29.67;19.48;;;;;;;13.95;100.00;101985.63;5082737;28;20346;-70
2022/10/31 10:25:23;;;;;;;31.92;18.88;;;;;;;14.05;100.00;101986.19;5028562;28;20044;-71
2022/10/31 10:28:10;;;;;;;32.17;19.35;;;;;;;14.03;100.00;101971.75;5084680;28;20172;-71
2022/10/31 10:30:50;;;;;;;31.73;19.00;;;;;;;14.07;100.00;101966.69;5083453;28;20036;-72
2022/10/31 10:33:22;;;;;;;33.92;17.52;;;;;;;14.06;100.00;101963.09;5078344;28;20576;-73
2022/10/31 10:35:52;;;;;;;31.83;18.83;;;;;;;14.10;100.00;101958.06;5081208;28;20107;-74
2022/10/31 10:38:29;;;;;;;31.63;18.33;;;;;;;14.09;100.00;101970.13;5094018;28;20577;-71
2022/10/31 10:40:55;;;;;;;31.88;18.60;;;;;;;14.05;100.00;101974.31;5085602;28;20459;-72
2022/10/31 10:43:23;;;;;;;30.57;19.07;;;;;;;14.12;100.00;101972.47;5088020;28;20039;-70
2022/10/31 10:49:10;;;;;;;39.28;18.17;;;;;;;14.27;100.00;101945.78;5079877;28;20281;-71
2022/10/31 10:51:53;;;;;;;32.35;18.67;;;;;;;14.48;100.00;101952.19;5064230;28;20032;-71
2022/10/31 10:54:47;;;;;;;37.10;18.98;;;;;;;14.43;100.00;101960.19;5083971;28;20107;-71
2022/10/31 10:57:18;;;;;;;32.42;17.73;;;;;;;14.47;100.00;101953.22;5082505;28;20044;-70
2022/10/31 10:59:44;;;;;;;37.13;18.25;;;;;;;14.46;100.00;101947.94;5086115;28;20055;-71
2022/10/31 11:02:20;;;;;;;39.92;17.90;;;;;;;14.50;100.00;101943.69;5085694;28;20036;-71
2022/10/31 11:04:49;;;;;;;28.17;18.48;;;;;;;14.49;100.00;101947.50;5068703;28;20042;-71
2022/10/31 11:07:15;;;;;;;36.53;19.02;;;;;;;14.55;100.00;101942.09;5085230;28;20073;-71
2022/10/31 11:09:40;;;;;;;32.70;19.27;;;;;;;14.56;100.00;101932.75;5084356;28;20495;-71
2022/10/31 11:12:10;;;;;;;38.20;20.63;;;;;;;14.57;100.00;101922.59;5089660;28;20024;-72
2022/10/31 11:14:47;;;;;;;39.10;20.90;;;;;;;14.57;100.00;101912.38;5089313;28;20024;-71
2022/10/31 11:17:39;;;;;;;37.47;21.85;;;;;;;14.56;100.00;101915.38;5095519;28;20015;-71
2022/10/31 11:20:25;;;;;;;44.75;21.70;;;;;;;14.63;100.00;101910.75;5086599;28;20048;-72
2022/10/31 11:23:02;;;;;;;45.17;22.83;;;;;;;14.67;100.00;101901.06;5090246;28;20115;-70